createdAt,value
2022-08-02T00:00:01.533Z,18.31
2022-08-02T00:01:24.515Z,18.31
2022-08-02T00:02:27.466Z,18.30
2022-08-02T00:03:30.803Z,18.30
2022-08-02T00:04:33.844Z,18.30
2022-08-02T00:05:37.399Z,18.30
2022-08-02T00:06:40.290Z,18.29
2022-08-02T00:07:43.214Z,18.29
2022-08-02T00:08:46.063Z,18.28
2022-08-02T00:09:49.022Z,18.28
2022-08-02T00:10:51.861Z,18.29
2022-08-02T00:11:54.710Z,18.30
2022-08-02T00:12:57.636Z,18.31
2022-08-02T00:14:00.470Z,18.31
2022-08-02T00:15:04.119Z,18.31
2022-08-02T00:16:06.929Z,18.31
2022-08-02T00:17:09.799Z,18.31
2022-08-02T00:18:12.609Z,18.31
2022-08-02T00:19:15.471Z,18.30
2022-08-02T00:20:18.690Z,18.30
2022-08-02T00:21:21.592Z,18.30
2022-08-02T00:22:24.483Z,18.30
2022-08-02T00:23:27.372Z,18.31
2022-08-02T00:24:30.905Z,18.30
2022-08-02T00:25:34.117Z,18.29
2022-08-02T00:26:36.991Z,18.28
2022-08-02T00:27:39.780Z,18.28
2022-08-02T00:28:42.783Z,18.26
2022-08-02T00:29:52.583Z,18.24
2022-08-02T00:30:57.817Z,18.23
2022-08-02T00:32:00.685Z,18.23
2022-08-02T00:33:05.198Z,18.22
2022-08-02T00:34:28.467Z,18.22
2022-08-02T00:35:33.071Z,18.23
2022-08-02T00:36:35.913Z,18.23
2022-08-02T00:37:39.594Z,18.22
2022-08-02T00:38:42.391Z,18.22
2022-08-02T00:39:46.037Z,18.21
2022-08-02T00:40:49.414Z,18.20
2022-08-02T00:41:53.264Z,18.20
2022-08-02T00:43:09.676Z,18.19
2022-08-02T00:44:12.764Z,18.18
2022-08-02T00:45:15.719Z,18.18
2022-08-02T00:46:19.417Z,18.17
2022-08-02T00:47:22.292Z,18.17
2022-08-02T00:48:25.090Z,18.17
2022-08-02T00:49:28.151Z,18.17
2022-08-02T00:50:31.718Z,18.17
2022-08-02T00:51:34.712Z,18.16
2022-08-02T00:52:37.646Z,18.16
2022-08-02T00:53:40.966Z,18.15
2022-08-02T00:54:43.788Z,18.15
2022-08-02T00:55:46.707Z,18.15
2022-08-02T00:56:51.173Z,18.14
2022-08-02T00:57:54.296Z,18.14
2022-08-02T00:58:57.218Z,18.14
2022-08-02T00:59:59.976Z,18.14
2022-08-02T01:01:03.641Z,18.14
2022-08-02T01:02:06.554Z,18.14
2022-08-02T01:03:09.485Z,18.14
2022-08-02T01:04:13.129Z,18.14
2022-08-02T01:05:16.261Z,18.13
2022-08-02T01:06:19.106Z,18.12
2022-08-02T01:07:21.856Z,18.11
2022-08-02T01:08:29.389Z,18.10
2022-08-02T01:09:34.550Z,18.10
2022-08-02T01:10:37.485Z,18.10
2022-08-02T01:11:40.294Z,18.09
2022-08-02T01:12:43.191Z,18.09
2022-08-02T01:13:46.625Z,18.08
2022-08-02T01:14:53.600Z,18.08
2022-08-02T01:16:00.673Z,18.07
2022-08-02T01:17:08.666Z,18.06
2022-08-02T01:18:24.670Z,18.05
2022-08-02T01:19:46.168Z,18.03
2022-08-02T01:21:07.393Z,18.02
2022-08-02T01:22:20.165Z,18.02
2022-08-02T01:23:32.066Z,18.01
2022-08-02T01:24:49.364Z,18.00
2022-08-02T01:26:01.348Z,17.98
2022-08-02T01:27:06.930Z,17.97
2022-08-02T01:28:27.848Z,17.96
2022-08-02T01:29:34.542Z,17.94
2022-08-02T01:32:14.854Z,17.91
2022-08-02T01:33:19.655Z,17.87
2022-08-02T01:34:29.655Z,17.86
2022-08-02T01:35:50.533Z,17.85
2022-08-02T01:36:57.225Z,17.83
2022-08-02T01:38:14.551Z,17.82
2022-08-02T01:39:26.830Z,17.81
2022-08-02T01:40:37.614Z,17.80
2022-08-02T01:41:41.438Z,17.80
2022-08-02T01:42:47.180Z,17.78
2022-08-02T01:43:52.509Z,17.78
2022-08-02T01:44:57.006Z,17.78
2022-08-02T01:46:00.714Z,17.77
2022-08-02T01:47:05.768Z,17.75
2022-08-02T01:48:09.929Z,17.74
2022-08-02T01:49:20.377Z,17.73
2022-08-02T01:50:26.145Z,17.72
2022-08-02T01:51:47.787Z,17.71
2022-08-02T01:52:54.535Z,17.71
2022-08-02T01:53:57.392Z,17.69
2022-08-02T01:55:19.021Z,17.67
2022-08-02T01:56:22.290Z,17.66
2022-08-02T01:57:26.379Z,17.65
2022-08-02T01:58:35.058Z,17.63
2022-08-02T01:59:38.370Z,17.61
2022-08-02T02:00:41.801Z,17.62
2022-08-02T02:01:46.123Z,17.61
2022-08-02T02:02:49.711Z,17.59
2022-08-02T02:03:52.765Z,17.59
2022-08-02T02:04:58.041Z,17.58
2022-08-02T02:06:02.454Z,17.57
2022-08-02T02:07:06.210Z,17.56
2022-08-02T02:08:09.628Z,17.55
2022-08-02T02:09:14.506Z,17.54
2022-08-02T02:10:19.302Z,17.53
2022-08-02T02:12:14.110Z,17.53
2022-08-02T02:12:47.854Z,17.53
2022-08-02T02:13:50.823Z,17.52
2022-08-02T02:14:54.760Z,17.52
2022-08-02T02:15:58.682Z,17.52
2022-08-02T02:17:03.382Z,17.51
2022-08-02T02:18:12.547Z,17.51
2022-08-02T02:19:21.310Z,17.51
2022-08-02T02:20:25.689Z,17.50
2022-08-02T02:21:29.055Z,17.50
2022-08-02T02:22:34.329Z,17.50
2022-08-02T02:23:37.975Z,17.50
2022-08-02T02:24:40.889Z,17.50
2022-08-02T02:25:46.815Z,17.50
2022-08-02T02:26:52.297Z,17.51
2022-08-02T02:28:00.786Z,17.50
2022-08-02T02:29:05.210Z,17.51
2022-08-02T02:30:08.437Z,17.51
2022-08-02T02:31:14.100Z,17.52
2022-08-02T02:32:18.040Z,17.52
2022-08-02T02:33:26.292Z,17.51
2022-08-02T02:34:37.852Z,17.51
2022-08-02T02:35:42.227Z,17.50
2022-08-02T02:36:49.630Z,17.50
2022-08-02T02:37:53.060Z,17.49
2022-08-02T02:38:57.452Z,17.49
2022-08-02T02:40:01.163Z,17.48
2022-08-02T02:41:06.852Z,17.49
2022-08-02T02:42:13.615Z,17.49
2022-08-02T02:43:17.530Z,17.48
2022-08-02T02:44:21.442Z,17.48
2022-08-02T02:45:25.151Z,17.48
2022-08-02T02:46:30.017Z,17.47
2022-08-02T02:47:40.702Z,17.46
2022-08-02T02:48:44.941Z,17.46
2022-08-02T02:49:49.150Z,17.46
2022-08-02T02:50:52.788Z,17.46
2022-08-02T02:51:56.006Z,17.46
2022-08-02T02:52:59.382Z,17.46
2022-08-02T02:54:33.587Z,17.45
2022-08-02T02:55:25.712Z,17.44
2022-08-02T02:56:28.695Z,17.44
2022-08-02T02:57:31.704Z,17.43
2022-08-02T02:58:34.764Z,17.43
2022-08-02T02:59:43.049Z,17.43
2022-08-02T03:01:11.749Z,17.42
2022-08-02T03:02:15.167Z,17.42
2022-08-02T03:03:19.595Z,17.43
2022-08-02T03:04:24.961Z,17.42
2022-08-02T03:05:27.845Z,17.41
2022-08-02T03:06:31.095Z,17.41
2022-08-02T03:07:34.614Z,17.41
2022-08-02T03:08:37.509Z,17.41
2022-08-02T03:09:40.420Z,17.41
2022-08-02T03:10:44.478Z,17.41
2022-08-02T03:11:47.763Z,17.40
2022-08-02T03:12:50.994Z,17.39
2022-08-02T03:13:53.871Z,17.38
2022-08-02T03:14:58.565Z,17.38
2022-08-02T03:16:01.859Z,17.38
2022-08-02T03:17:04.776Z,17.38
2022-08-02T03:18:10.501Z,17.37
2022-08-02T03:19:13.408Z,17.37
2022-08-02T03:20:17.571Z,17.37
2022-08-02T03:21:20.576Z,17.37
2022-08-02T03:22:23.442Z,17.36
2022-08-02T03:23:26.370Z,17.36
2022-08-02T03:24:29.212Z,17.37
2022-08-02T03:25:32.080Z,17.37
2022-08-02T03:26:35.433Z,17.36
2022-08-02T03:27:38.723Z,17.35
2022-08-02T03:28:41.837Z,17.36
2022-08-02T03:29:44.662Z,17.36
2022-08-02T03:30:47.541Z,17.36
2022-08-02T03:31:50.843Z,17.36
2022-08-02T03:32:53.817Z,17.36
2022-08-02T03:33:58.389Z,17.35
2022-08-02T03:35:01.676Z,17.35
2022-08-02T03:36:10.544Z,17.35
2022-08-02T03:37:13.977Z,17.35
2022-08-02T03:38:18.801Z,17.35
2022-08-02T03:39:22.507Z,17.35
2022-08-02T03:40:25.761Z,17.36
2022-08-02T03:41:29.699Z,17.36
2022-08-02T03:42:32.663Z,17.36
2022-08-02T03:43:36.814Z,17.37
2022-08-02T03:44:40.078Z,17.36
2022-08-02T03:45:44.198Z,17.37
2022-08-02T03:46:51.931Z,17.38
2022-08-02T03:47:58.791Z,17.39
2022-08-02T03:49:02.599Z,17.40
2022-08-02T03:50:06.927Z,17.41
2022-08-02T03:51:10.901Z,17.42
2022-08-02T03:52:14.669Z,17.43
2022-08-02T03:53:20.127Z,17.43
2022-08-02T03:54:23.625Z,17.44
2022-08-02T03:55:39.298Z,17.46
2022-08-02T03:56:42.210Z,17.47
2022-08-02T03:57:45.372Z,17.48
2022-08-02T03:58:49.439Z,17.49
2022-08-02T03:59:52.646Z,17.49
2022-08-02T04:00:56.675Z,17.50
2022-08-02T04:01:59.570Z,17.52
2022-08-02T04:03:07.006Z,17.54
2022-08-02T04:04:13.905Z,17.55
2022-08-02T04:05:17.349Z,17.56
2022-08-02T04:06:20.322Z,17.57
2022-08-02T04:08:35.208Z,17.58
2022-08-02T04:08:53.262Z,17.59
2022-08-02T04:09:56.109Z,17.61
2022-08-02T04:11:17.335Z,17.62
2022-08-02T04:12:20.415Z,17.63
2022-08-02T04:13:31.263Z,17.64
2022-08-02T04:14:36.605Z,17.65
2022-08-02T04:15:40.241Z,17.66
2022-08-02T04:16:43.060Z,17.67
2022-08-02T04:17:48.770Z,17.69
2022-08-02T04:18:54.084Z,17.71
2022-08-02T04:20:00.974Z,17.72
2022-08-02T04:21:04.942Z,17.74
2022-08-02T04:22:11.948Z,17.75
2022-08-02T04:23:16.701Z,17.77
2022-08-02T04:24:24.521Z,17.78
2022-08-02T04:25:35.502Z,17.80
2022-08-02T04:26:44.739Z,17.83
2022-08-02T04:28:17.732Z,17.85
2022-08-02T04:29:17.092Z,17.88
2022-08-02T04:30:20.485Z,17.89
2022-08-02T04:31:23.361Z,17.90
2022-08-02T04:32:27.284Z,17.92
2022-08-02T04:33:31.170Z,17.95
2022-08-02T04:34:34.518Z,17.99
2022-08-02T04:35:37.480Z,18.02
2022-08-02T04:36:40.553Z,18.04
2022-08-02T04:38:09.449Z,18.05
2022-08-02T04:39:07.249Z,18.08
2022-08-02T04:40:10.931Z,18.11
2022-08-02T04:41:13.828Z,18.14
2022-08-02T04:42:23.945Z,18.17
2022-08-02T04:43:26.858Z,18.19
2022-08-02T04:44:29.749Z,18.21
2022-08-02T04:45:32.782Z,18.22
2022-08-02T04:46:36.196Z,18.24
2022-08-02T04:48:02.531Z,18.26
2022-08-02T04:49:02.403Z,18.28
2022-08-02T04:50:08.300Z,18.31
2022-08-02T04:51:11.456Z,18.35
2022-08-02T04:52:14.706Z,18.38
2022-08-02T04:53:17.733Z,18.41
2022-08-02T04:54:20.727Z,18.44
2022-08-02T04:55:28.385Z,18.45
2022-08-02T04:56:31.397Z,18.45
2022-08-02T04:57:53.276Z,18.45
2022-08-02T04:58:56.443Z,18.48
2022-08-02T04:59:59.306Z,18.50
2022-08-02T05:01:02.394Z,18.53
2022-08-02T05:02:05.494Z,18.57
2022-08-02T05:03:08.394Z,18.61
2022-08-02T05:04:11.340Z,18.63
2022-08-02T05:05:14.410Z,18.65
2022-08-02T05:06:19.880Z,18.68
2022-08-02T05:07:23.033Z,18.71
2022-08-02T05:08:25.868Z,18.74
2022-08-02T05:09:28.772Z,18.77
2022-08-02T05:10:31.663Z,18.78
2022-08-02T05:11:36.783Z,18.81
2022-08-02T05:12:41.568Z,18.85
2022-08-02T05:13:57.561Z,18.88
2022-08-02T05:15:00.900Z,18.91
2022-08-02T05:16:04.664Z,18.93
2022-08-02T05:17:07.645Z,18.94
2022-08-02T05:18:10.692Z,18.96
2022-08-02T05:19:14.450Z,19.00
2022-08-02T05:20:17.912Z,19.04
2022-08-02T05:21:21.071Z,19.07
2022-08-02T05:22:24.120Z,19.12
2022-08-02T05:23:29.071Z,19.15
2022-08-02T05:24:31.979Z,19.18
2022-08-02T05:25:34.874Z,19.20
2022-08-02T05:26:37.827Z,19.20
2022-08-02T05:27:40.840Z,19.22
2022-08-02T05:28:43.858Z,19.21
2022-08-02T05:29:51.191Z,19.20
2022-08-02T05:30:56.550Z,19.20
2022-08-02T05:31:59.408Z,19.24
2022-08-02T05:33:02.623Z,19.30
2022-08-02T05:34:08.670Z,19.33
2022-08-02T05:35:17.699Z,19.37
2022-08-02T05:36:21.613Z,19.41
2022-08-02T05:37:24.709Z,19.45
2022-08-02T05:38:31.226Z,19.47
2022-08-02T05:39:34.877Z,19.49
2022-08-02T05:40:46.673Z,19.49
2022-08-02T05:41:57.985Z,19.46
2022-08-02T05:43:00.896Z,19.48
2022-08-02T05:44:04.412Z,19.50
2022-08-02T05:45:07.525Z,19.51
2022-08-02T05:46:10.450Z,19.53
2022-08-02T05:47:13.302Z,19.57
2022-08-02T05:48:16.198Z,19.63
2022-08-02T05:49:19.304Z,19.71
2022-08-02T05:50:24.312Z,19.79
2022-08-02T05:51:43.005Z,19.91
2022-08-02T05:52:48.603Z,19.98
2022-08-02T05:53:59.228Z,20.03
2022-08-02T05:55:06.419Z,20.06
2022-08-02T05:56:24.501Z,20.09
2022-08-02T05:57:46.140Z,20.14
2022-08-02T05:59:09.902Z,20.16
2022-08-02T06:00:14.074Z,20.16
2022-08-02T06:01:24.088Z,20.15
2022-08-02T06:02:30.874Z,20.14
2022-08-02T06:03:44.417Z,20.14
2022-08-02T06:04:56.822Z,20.16
2022-08-02T06:06:00.681Z,20.19
2022-08-02T06:07:06.589Z,20.23
2022-08-02T06:08:10.305Z,20.27
2022-08-02T06:09:23.243Z,20.30
2022-08-02T06:10:30.413Z,20.31
2022-08-02T06:11:35.724Z,20.30
2022-08-02T06:12:47.196Z,20.30
2022-08-02T06:13:51.674Z,20.30
2022-08-02T06:14:54.938Z,20.32
2022-08-02T06:15:59.542Z,20.33
2022-08-02T06:17:05.763Z,20.36
2022-08-02T06:18:08.979Z,20.38
2022-08-02T06:19:12.265Z,20.41
2022-08-02T06:20:15.610Z,20.43
2022-08-02T06:22:35.297Z,20.44
2022-08-02T06:22:45.441Z,20.46
2022-08-02T06:23:59.226Z,20.44
2022-08-02T06:25:02.718Z,20.44
2022-08-02T06:26:06.804Z,20.44
2022-08-02T06:27:10.043Z,20.43
2022-08-02T06:28:13.933Z,20.42
2022-08-02T06:29:17.288Z,20.42
2022-08-02T06:30:20.216Z,20.43
2022-08-02T06:31:23.198Z,20.43
2022-08-02T06:32:26.915Z,20.43
2022-08-02T06:33:29.733Z,20.45
2022-08-02T06:34:36.337Z,20.46
2022-08-02T06:35:54.066Z,20.49
2022-08-02T06:37:05.839Z,20.48
2022-08-02T06:38:10.324Z,20.49
2022-08-02T06:39:16.478Z,20.51
2022-08-02T06:40:22.316Z,20.54
2022-08-02T06:41:26.356Z,20.57
2022-08-02T06:42:44.336Z,20.60
2022-08-02T06:43:53.560Z,20.63
2022-08-02T06:44:58.138Z,20.67
2022-08-02T06:46:34.490Z,20.72
2022-08-02T06:47:24.823Z,20.75
2022-08-02T06:48:27.701Z,20.76
2022-08-02T06:49:52.130Z,20.78
2022-08-02T06:50:53.514Z,20.80
2022-08-02T06:51:56.627Z,20.79
2022-08-02T06:53:00.525Z,20.80
2022-08-02T06:54:03.508Z,20.83
2022-08-02T06:55:07.411Z,20.85
2022-08-02T06:56:10.711Z,20.89
2022-08-02T06:57:15.505Z,20.91
2022-08-02T06:58:18.386Z,20.91
2022-08-02T06:59:21.262Z,20.92
2022-08-02T07:00:24.274Z,20.94
2022-08-02T07:01:27.329Z,20.96
2022-08-02T07:02:41.879Z,21.00
2022-08-02T07:03:44.760Z,21.02
2022-08-02T07:04:47.748Z,21.05
2022-08-02T07:05:50.569Z,21.07
2022-08-02T07:06:53.922Z,21.07
2022-08-02T07:07:57.093Z,21.10
2022-08-02T07:09:20.160Z,21.09
2022-08-02T07:10:24.337Z,21.10
2022-08-02T07:11:27.170Z,21.05
2022-08-02T07:12:31.129Z,21.03
2022-08-02T07:13:39.295Z,21.02
2022-08-02T07:14:42.645Z,21.01
2022-08-02T07:15:49.160Z,21.03
2022-08-02T07:16:53.550Z,21.06
2022-08-02T07:17:59.139Z,21.10
2022-08-02T07:19:03.387Z,21.14
2022-08-02T07:20:06.652Z,21.17
2022-08-02T07:21:09.625Z,21.22
2022-08-02T07:22:13.249Z,21.26
2022-08-02T07:23:18.034Z,21.31
2022-08-02T07:24:21.092Z,21.33
2022-08-02T07:25:24.030Z,21.35
2022-08-02T07:26:26.655Z,21.37
2022-08-02T07:27:30.126Z,21.40
2022-08-02T07:28:33.202Z,21.41
2022-08-02T07:29:45.187Z,21.41
2022-08-02T07:30:49.834Z,21.41
2022-08-02T07:31:52.814Z,21.41
2022-08-02T07:32:55.666Z,21.43
2022-08-02T07:33:58.473Z,21.47
2022-08-02T07:35:06.449Z,21.53
2022-08-02T07:36:17.055Z,21.58
2022-08-02T07:37:53.239Z,21.64
2022-08-02T07:38:49.958Z,21.65
2022-08-02T07:39:52.827Z,21.64
2022-08-02T07:40:56.355Z,21.63
2022-08-02T07:41:59.475Z,21.63
2022-08-02T07:43:04.114Z,21.65
2022-08-02T07:44:13.038Z,21.64
2022-08-02T07:45:16.150Z,21.66
2022-08-02T07:46:19.148Z,21.67
2022-08-02T07:47:22.023Z,21.68
2022-08-02T07:48:24.925Z,21.67
2022-08-02T07:49:28.145Z,21.64
2022-08-02T07:50:31.086Z,21.62
2022-08-02T07:51:36.643Z,21.62
2022-08-02T07:52:40.525Z,21.62
2022-08-02T07:53:50.648Z,21.60
2022-08-02T07:54:54.918Z,21.57
2022-08-02T07:55:57.809Z,21.57
2022-08-02T07:57:01.199Z,21.57
2022-08-02T07:58:04.918Z,21.56
2022-08-02T07:59:07.824Z,21.55
2022-08-02T08:00:11.047Z,21.56
2022-08-02T08:01:18.137Z,21.57
2022-08-02T08:02:21.536Z,21.59
2022-08-02T08:03:24.207Z,21.60
2022-08-02T08:04:27.032Z,21.60
2022-08-02T08:05:29.661Z,21.62
2022-08-02T08:06:32.451Z,21.65
2022-08-02T08:07:35.436Z,21.68
2022-08-02T08:08:38.611Z,21.70
2022-08-02T08:09:45.244Z,21.74
2022-08-02T08:10:48.224Z,21.78
2022-08-02T08:11:51.266Z,21.83
2022-08-02T08:12:55.287Z,21.88
2022-08-02T08:13:58.168Z,21.91
2022-08-02T08:15:01.022Z,21.95
2022-08-02T08:16:04.209Z,21.98
2022-08-02T08:17:07.437Z,22.03
2022-08-02T08:18:10.543Z,22.07
2022-08-02T08:19:15.312Z,22.13
2022-08-02T08:20:18.686Z,22.12
2022-08-02T08:21:21.737Z,22.06
2022-08-02T08:22:24.703Z,22.03
2022-08-02T08:23:27.782Z,22.01
2022-08-02T08:24:30.834Z,22.00
2022-08-02T08:25:39.858Z,22.00
2022-08-02T08:26:44.529Z,22.03
2022-08-02T08:27:48.302Z,22.06
2022-08-02T08:28:51.361Z,22.09
2022-08-02T08:29:54.291Z,22.15
2022-08-02T08:30:57.454Z,22.21
2022-08-02T08:32:00.313Z,22.27
2022-08-02T08:33:04.467Z,22.30
2022-08-02T08:34:07.462Z,22.30
2022-08-02T08:35:10.467Z,22.31
2022-08-02T08:36:13.522Z,22.34
2022-08-02T08:37:17.683Z,22.38
2022-08-02T08:38:21.526Z,22.43
2022-08-02T08:39:25.982Z,22.47
2022-08-02T08:40:29.112Z,22.51
2022-08-02T08:41:32.168Z,22.54
2022-08-02T08:42:37.810Z,22.57
2022-08-02T08:43:41.427Z,22.55
2022-08-02T08:44:45.178Z,22.53
2022-08-02T08:45:56.183Z,22.55
2022-08-02T08:47:00.953Z,22.57
2022-08-02T08:48:10.387Z,22.54
2022-08-02T08:49:19.650Z,22.47
2022-08-02T08:50:25.590Z,22.44
2022-08-02T08:51:37.346Z,22.43
2022-08-02T08:52:42.425Z,22.43
2022-08-02T08:53:47.496Z,22.42
2022-08-02T08:54:50.696Z,22.44
2022-08-02T08:55:56.464Z,22.49
2022-08-02T08:56:59.884Z,22.57
2022-08-02T08:58:03.311Z,22.64
2022-08-02T08:59:06.770Z,22.71
2022-08-02T09:00:11.229Z,22.75
2022-08-02T09:01:15.419Z,22.77
2022-08-02T09:02:21.389Z,22.78
2022-08-02T09:03:26.587Z,22.79
2022-08-02T09:04:36.808Z,22.81
2022-08-02T09:05:40.645Z,22.86
2022-08-02T09:06:43.724Z,22.91
2022-08-02T09:07:50.318Z,22.96
2022-08-02T09:08:53.239Z,23.03
2022-08-02T09:09:56.095Z,23.07
2022-08-02T09:10:59.525Z,23.06
2022-08-02T09:12:15.708Z,23.06
2022-08-02T09:13:37.983Z,23.06
2022-08-02T09:14:49.930Z,23.13
2022-08-02T09:16:11.372Z,23.19
2022-08-02T09:17:16.430Z,23.25
2022-08-02T09:18:19.296Z,23.28
2022-08-02T09:19:26.537Z,23.30
2022-08-02T09:20:30.865Z,23.34
2022-08-02T09:21:35.044Z,23.35
2022-08-02T09:22:38.467Z,23.38
2022-08-02T09:23:45.409Z,23.42
2022-08-02T09:24:49.227Z,23.43
2022-08-02T09:26:00.324Z,23.43
2022-08-02T09:27:10.609Z,23.43
2022-08-02T09:28:15.041Z,23.48
2022-08-02T09:29:22.580Z,23.52
2022-08-02T09:30:28.376Z,23.58
2022-08-02T09:31:34.130Z,23.62
2022-08-02T09:32:48.140Z,23.64
2022-08-02T09:33:55.389Z,23.66
2022-08-02T09:34:58.466Z,23.62
2022-08-02T09:36:06.102Z,23.61
2022-08-02T09:37:23.588Z,23.61
2022-08-02T09:38:26.977Z,23.59
2022-08-02T09:39:47.470Z,23.59
2022-08-02T09:40:51.190Z,23.64
2022-08-02T09:42:08.344Z,23.66
2022-08-02T09:43:11.438Z,23.64
2022-08-02T09:44:16.249Z,23.61
2022-08-02T09:45:19.902Z,23.60
2022-08-02T09:46:24.681Z,23.48
2022-08-02T09:47:28.338Z,23.40
2022-08-02T09:48:34.047Z,23.39
2022-08-02T09:49:45.610Z,23.40
2022-08-02T09:50:56.430Z,23.43
2022-08-02T09:52:01.675Z,23.47
2022-08-02T09:53:04.810Z,23.49
2022-08-02T09:54:09.731Z,23.49
2022-08-02T09:55:13.076Z,23.49
2022-08-02T09:56:35.185Z,23.48
2022-08-02T09:57:38.970Z,23.46
2022-08-02T09:58:44.896Z,23.49
2022-08-02T09:59:55.571Z,23.52
2022-08-02T10:00:59.239Z,23.57
2022-08-02T10:02:17.524Z,23.62
2022-08-02T10:03:23.073Z,23.68
2022-08-02T10:04:34.286Z,23.69
2022-08-02T10:06:02.345Z,23.66
2022-08-02T10:07:06.668Z,23.67
2022-08-02T10:08:09.829Z,23.70
2022-08-02T10:09:15.791Z,23.77
2022-08-02T10:10:18.973Z,23.85
2022-08-02T10:11:22.760Z,23.90
2022-08-02T10:12:26.717Z,23.94
2022-08-02T10:13:30.832Z,24.00
2022-08-02T10:14:34.773Z,24.10
2022-08-02T10:15:38.584Z,24.18
2022-08-02T10:16:54.772Z,24.16
2022-08-02T10:17:58.088Z,24.17
2022-08-02T10:19:04.384Z,24.20
2022-08-02T10:20:07.508Z,24.21
2022-08-02T10:21:12.648Z,24.22
2022-08-02T10:22:17.685Z,24.24
2022-08-02T10:23:25.928Z,24.29
2022-08-02T10:24:30.623Z,24.34
2022-08-02T10:25:36.495Z,24.27
2022-08-02T10:26:40.883Z,24.22
2022-08-02T10:28:04.362Z,24.20
2022-08-02T10:29:09.624Z,24.19
2022-08-02T10:30:12.700Z,24.24
2022-08-02T10:31:19.160Z,24.30
2022-08-02T10:32:26.762Z,24.35
2022-08-02T10:33:30.316Z,24.43
2022-08-02T10:34:38.185Z,24.52
2022-08-02T10:35:41.685Z,24.53
2022-08-02T10:36:45.542Z,24.53
2022-08-02T10:37:51.012Z,24.58
2022-08-02T10:38:55.631Z,24.66
2022-08-02T10:39:59.271Z,24.74
2022-08-02T10:41:02.187Z,24.78
2022-08-02T10:42:05.258Z,24.82
2022-08-02T10:43:08.146Z,24.80
2022-08-02T10:44:30.675Z,24.77
2022-08-02T10:45:34.832Z,24.76
2022-08-02T10:46:37.840Z,24.82
2022-08-02T10:47:56.288Z,24.86
2022-08-02T10:49:29.691Z,24.89
2022-08-02T10:50:46.658Z,24.99
2022-08-02T10:51:55.169Z,25.07
2022-08-02T10:53:16.562Z,25.06
2022-08-02T10:54:20.896Z,25.16
2022-08-02T10:55:24.561Z,25.22
2022-08-02T10:56:45.970Z,25.27
2022-08-02T10:58:08.902Z,25.32
2022-08-02T10:59:28.479Z,25.34
2022-08-02T11:00:31.421Z,25.37
2022-08-02T11:01:43.574Z,25.43
2022-08-02T11:02:47.268Z,25.51
2022-08-02T11:04:00.146Z,25.57
2022-08-02T11:05:05.441Z,25.60
2022-08-02T11:06:25.250Z,25.61
2022-08-02T11:07:33.101Z,25.68
2022-08-02T11:08:36.417Z,25.70
2022-08-02T11:09:39.791Z,25.74
2022-08-02T11:10:42.695Z,25.77
2022-08-02T11:12:04.449Z,25.75
2022-08-02T11:13:08.995Z,25.76
2022-08-02T11:14:14.230Z,25.76
2022-08-02T11:15:18.706Z,25.74
2022-08-02T11:16:21.536Z,25.73
2022-08-02T11:17:25.203Z,25.74
2022-08-02T11:18:54.242Z,25.75
2022-08-02T11:20:12.769Z,25.75
2022-08-02T11:21:28.006Z,25.74
2022-08-02T11:22:31.096Z,25.77
2022-08-02T11:23:44.923Z,25.80
2022-08-02T11:24:48.990Z,25.84
2022-08-02T11:26:03.592Z,25.88
2022-08-02T11:27:18.592Z,25.95
2022-08-02T11:28:25.972Z,26.02
2022-08-02T11:29:58.313Z,26.13
2022-08-02T11:31:02.684Z,26.27
2022-08-02T11:32:15.136Z,26.33
2022-08-02T11:33:18.525Z,26.39
2022-08-02T11:34:37.218Z,26.47
2022-08-02T11:35:41.480Z,26.62
2022-08-02T11:36:45.455Z,26.77
2022-08-02T11:37:48.697Z,26.88
2022-08-02T11:39:09.005Z,26.98
2022-08-02T11:40:19.677Z,27.10
2022-08-02T11:41:46.080Z,27.22
2022-08-02T11:42:47.299Z,27.33
2022-08-02T11:43:56.611Z,27.33
2022-08-02T11:45:00.016Z,27.32
2022-08-02T11:46:03.960Z,27.35
2022-08-02T11:47:09.795Z,27.39
2022-08-02T11:48:12.832Z,27.46
2022-08-02T11:49:19.556Z,27.52
2022-08-02T11:50:30.449Z,27.55
2022-08-02T11:51:33.556Z,27.58
2022-08-02T11:52:37.694Z,27.57
2022-08-02T11:53:43.854Z,27.63
2022-08-02T11:54:49.167Z,27.71
2022-08-02T11:55:56.875Z,27.76
2022-08-02T11:57:16.875Z,27.78
2022-08-02T11:58:22.033Z,27.84
2022-08-02T11:59:24.960Z,27.89
2022-08-02T12:00:30.737Z,27.95
2022-08-02T12:01:44.791Z,28.01
2022-08-02T12:02:49.338Z,28.06
2022-08-02T12:03:52.481Z,28.07
2022-08-02T12:04:58.359Z,28.08
2022-08-02T12:06:06.338Z,28.02
2022-08-02T12:07:10.378Z,27.94
2022-08-02T12:08:13.608Z,27.91
2022-08-02T12:09:18.238Z,27.94
2022-08-02T12:10:23.794Z,27.98
2022-08-02T12:11:26.695Z,27.95
2022-08-02T12:12:49.465Z,27.88
2022-08-02T12:13:56.861Z,27.75
2022-08-02T12:15:00.393Z,27.63
2022-08-02T12:16:29.794Z,27.56
2022-08-02T12:17:51.046Z,27.40
2022-08-02T12:19:12.867Z,27.35
2022-08-02T12:20:17.425Z,27.39
2022-08-02T12:21:22.106Z,27.51
2022-08-02T12:22:27.403Z,27.66
2022-08-02T12:23:32.091Z,27.80
2022-08-02T12:24:35.232Z,27.91
2022-08-02T12:25:38.168Z,28.00
2022-08-02T12:26:44.883Z,28.15
2022-08-02T12:27:48.027Z,28.34
2022-08-02T12:29:01.505Z,28.52
2022-08-02T12:30:09.488Z,28.68
2022-08-02T12:31:15.561Z,28.86
2022-08-02T12:32:23.712Z,29.08
2022-08-02T12:33:28.426Z,29.40
2022-08-02T12:34:32.577Z,29.76
2022-08-02T12:35:36.044Z,30.07
2022-08-02T12:36:40.035Z,30.33
2022-08-02T12:37:45.790Z,30.54
2022-08-02T12:38:58.546Z,30.66
2022-08-02T12:40:37.393Z,30.69
2022-08-02T12:41:54.700Z,30.68
2022-08-02T12:43:05.356Z,30.64
2022-08-02T12:44:16.572Z,30.78
2022-08-02T12:45:23.351Z,30.85
2022-08-02T12:46:26.340Z,30.66
2022-08-02T12:47:35.642Z,30.40
2022-08-02T12:48:56.611Z,30.15
2022-08-02T12:50:20.859Z,29.84
2022-08-02T12:51:25.159Z,29.59
2022-08-02T12:52:48.802Z,29.39
2022-08-02T12:53:59.596Z,29.12
2022-08-02T12:55:24.255Z,28.81
2022-08-02T12:56:33.611Z,28.52
2022-08-02T12:57:50.577Z,28.32
2022-08-02T12:58:53.871Z,28.21
2022-08-02T12:59:56.824Z,28.05
2022-08-02T13:01:00.963Z,27.90
2022-08-02T13:02:05.461Z,27.84
2022-08-02T13:04:07.520Z,27.74
2022-08-02T13:04:31.721Z,27.80
2022-08-02T13:05:57.239Z,27.98
2022-08-02T13:06:58.772Z,28.19
2022-08-02T13:08:02.153Z,28.36
2022-08-02T13:09:12.574Z,28.48
2022-08-02T13:10:15.905Z,28.60
2022-08-02T13:11:18.795Z,28.66
2022-08-02T13:12:21.743Z,28.66
2022-08-02T13:13:24.672Z,28.55
2022-08-02T13:14:27.936Z,28.52
2022-08-02T13:15:49.666Z,28.49
2022-08-02T13:16:54.062Z,28.56
2022-08-02T13:17:59.153Z,28.70
2022-08-02T13:19:02.063Z,28.81
2022-08-02T13:20:05.584Z,28.88
2022-08-02T13:21:19.725Z,29.11
2022-08-02T13:22:36.626Z,29.63
2022-08-02T13:23:54.895Z,30.08
2022-08-02T13:24:58.286Z,30.40
2022-08-02T13:26:01.362Z,30.38
2022-08-02T13:27:08.313Z,30.15
2022-08-02T13:28:12.118Z,29.98
2022-08-02T13:29:15.010Z,29.77
2022-08-02T13:30:18.293Z,29.51
2022-08-02T13:31:36.279Z,29.29
2022-08-02T13:32:40.095Z,29.05
2022-08-02T13:33:43.135Z,29.08
2022-08-02T13:34:46.155Z,29.21
2022-08-02T13:35:49.735Z,29.36
2022-08-02T13:36:52.672Z,29.54
2022-08-02T13:37:55.807Z,29.72
2022-08-02T13:38:58.752Z,29.99
2022-08-02T13:41:24.701Z,30.56
2022-08-02T13:42:27.651Z,30.71
2022-08-02T13:43:52.659Z,30.88
2022-08-02T13:44:53.732Z,31.12
2022-08-02T13:45:56.749Z,31.41
2022-08-02T13:46:59.619Z,31.67
2022-08-02T13:48:05.452Z,31.98
2022-08-02T13:49:21.673Z,32.25
2022-08-02T13:50:25.557Z,32.39
2022-08-02T13:51:31.700Z,32.52
2022-08-02T13:52:40.203Z,32.76
2022-08-02T13:53:43.159Z,33.07
2022-08-02T13:54:46.269Z,33.32
2022-08-02T13:55:53.353Z,33.54
2022-08-02T13:56:59.147Z,33.80
2022-08-02T13:58:02.377Z,34.13
2022-08-02T13:59:54.052Z,34.42
2022-08-02T14:00:34.666Z,34.54
2022-08-02T14:01:39.305Z,34.61
2022-08-02T14:02:42.276Z,34.79
2022-08-02T14:04:08.358Z,34.90
2022-08-02T14:05:08.811Z,35.05
2022-08-02T14:06:12.205Z,35.35
2022-08-02T14:07:16.154Z,35.60
2022-08-02T14:08:20.160Z,35.49
2022-08-02T14:09:23.034Z,35.31
2022-08-02T14:10:26.620Z,35.33
2022-08-02T14:11:33.688Z,35.27
2022-08-02T14:12:36.732Z,35.20
2022-08-02T14:13:39.675Z,35.22
2022-08-02T14:14:42.666Z,35.38
2022-08-02T14:15:46.333Z,35.49
2022-08-02T14:16:49.513Z,35.62
2022-08-02T14:17:52.422Z,35.78
2022-08-02T14:18:57.290Z,35.95
2022-08-02T14:20:00.173Z,35.96